Time;durP1;ratioP1;P1;durP2;ratioP2;P2;SDS_P1;SDS_P2;PMS_P1;PMS_P2;Temp;Humidity;BMP_temperature;BMP_pressure;BME280_temperature;BME280_humidity;BME280_pressure;Samples;Min_cycle;Max_cycle;Signal;HPM_P1;HPM_P2
2022/10/24 00:01:39;;;;;;;7.40;2.33;;;;;;;14.61;94.88;100341.84;5033353;28;20021;-76
2022/10/24 00:04:05;;;;;;;7.95;2.50;;;;;;;14.60;94.73;100340.13;5031947;28;20431;-76
2022/10/24 00:06:30;;;;;;;5.88;2.20;;;;;;;14.60;94.09;100340.13;5023793;28;20048;-77
2022/10/24 00:08:56;;;;;;;7.43;2.28;;;;;;;14.63;93.72;100342.63;5042590;28;20044;-77
2022/10/24 00:11:25;;;;;;;5.85;2.60;;;;;;;14.63;93.09;100337.31;5049448;28;20037;-76
2022/10/24 00:13:53;;;;;;;7.97;2.20;;;;;;;14.63;93.13;100331.97;5038594;28;20512;-76
2022/10/24 00:16:19;;;;;;;12.63;2.58;;;;;;;14.60;92.82;100324.13;5032737;28;20037;-76
2022/10/24 00:18:44;;;;;;;9.52;2.72;;;;;;;14.63;92.29;100329.31;5033080;28;20068;-76
2022/10/24 00:21:11;;;;;;;11.15;2.47;;;;;;;14.63;91.91;100326.66;5032599;28;20037;-76
2022/10/24 00:23:36;;;;;;;11.27;3.00;;;;;;;14.62;91.55;100322.25;5032744;28;20063;-76
2022/10/24 00:26:05;;;;;;;8.75;2.90;;;;;;;14.64;91.34;100323.06;5036015;28;20446;-76
2022/10/24 00:28:33;;;;;;;14.18;2.53;;;;;;;14.65;90.92;100332.78;5032751;28;20021;-76
2022/10/24 00:30:59;;;;;;;10.52;2.20;;;;;;;14.66;90.58;100328.31;5032366;28;20049;-76
2022/10/24 00:33:24;;;;;;;11.02;2.22;;;;;;;14.67;90.40;100325.56;5032651;28;20052;-76
2022/10/24 00:35:50;;;;;;;10.57;2.30;;;;;;;14.61;90.41;100317.84;5047502;28;20461;-76
2022/10/24 00:38:15;;;;;;;13.10;2.65;;;;;;;14.62;90.25;100327.59;5043966;28;20033;-76
2022/10/24 00:40:41;;;;;;;12.13;2.45;;;;;;;14.60;89.77;100322.31;5031199;28;20017;-76
2022/10/24 00:43:19;;;;;;;13.18;2.30;;;;;;;14.64;89.59;100323.06;5025891;28;20069;-76
2022/10/24 00:45:49;;;;;;;10.20;2.28;;;;;;;14.62;89.47;100319.59;5012593;28;20477;-76
2022/10/24 00:48:56;;;;;;;15.75;2.60;;;;;;;14.60;89.28;100316.13;5015987;28;20479;-76
2022/10/24 00:51:29;;;;;;;7.05;2.33;;;;;;;14.58;88.92;100310.00;5014519;28;20056;-76
2022/10/24 00:54:05;;;;;;;9.18;3.00;;;;;;;14.56;88.50;100310.09;5035569;28;20030;-76
2022/10/24 00:56:35;;;;;;;14.27;2.25;;;;;;;14.55;88.77;100311.00;5030274;28;20037;-76
2022/10/24 00:59:03;;;;;;;9.18;2.17;;;;;;;14.55;88.56;100310.16;5032046;28;20041;-76
2022/10/24 01:01:29;;;;;;;14.75;2.88;;;;;;;14.55;88.17;100310.16;5016225;28;20117;-76
2022/10/24 01:03:55;;;;;;;6.00;2.10;;;;;;;14.52;88.25;100297.81;5031590;28;20099;-76
2022/10/24 01:06:42;;;;;;;7.55;2.30;;;;;;;14.53;87.95;100302.22;5035009;28;20473;-76
2022/10/24 01:09:16;;;;;;;8.40;2.45;;;;;;;14.53;87.59;100307.56;5038230;28;20453;-76
2022/10/24 01:11:56;;;;;;;7.70;2.22;;;;;;;14.53;87.73;100301.34;5032045;28;20057;-76
2022/10/24 01:14:53;;;;;;;11.07;2.60;;;;;;;14.53;87.86;100310.22;5055735;28;20603;-76
2022/10/24 01:17:27;;;;;;;6.55;2.50;;;;;;;14.51;87.52;100300.53;5027038;28;20038;-76
2022/10/24 01:20:01;;;;;;;9.45;2.38;;;;;;;14.52;86.68;100302.28;5037300;28;20033;-76
2022/10/24 01:22:42;;;;;;;8.73;2.40;;;;;;;14.52;86.78;100311.13;5031000;28;20045;-76
2022/10/24 01:25:20;;;;;;;11.25;2.63;;;;;;;14.50;86.90;100305.00;5040926;28;20036;-76
2022/10/24 01:28:22;;;;;;;8.68;2.63;;;;;;;14.50;87.34;100297.00;5046953;28;20061;-76
2022/10/24 01:30:53;;;;;;;11.35;2.70;;;;;;;14.47;86.61;100296.31;4999040;28;20045;-76
2022/10/24 01:33:29;;;;;;;12.90;2.60;;;;;;;14.44;86.94;100292.00;5046291;28;20080;-76
2022/10/24 01:36:14;;;;;;;8.50;2.10;;;;;;;14.42;86.54;100285.88;5030806;28;20119;-76
2022/10/24 01:38:46;;;;;;;12.93;2.45;;;;;;;14.40;86.43;100296.59;5031020;28;20112;-76
2022/10/24 01:41:21;;;;;;;11.27;2.60;;;;;;;14.48;85.94;100301.53;5046071;28;20025;-76
2022/10/24 01:44:38;;;;;;;14.35;2.92;;;;;;;14.54;84.99;100293.31;5031034;28;20044;-76
2022/10/24 01:47:11;;;;;;;8.30;2.58;;;;;;;14.53;85.40;100278.25;5009404;28;20040;-76
2022/10/24 01:49:39;;;;;;;11.40;2.33;;;;;;;14.55;84.05;100291.50;5009100;28;20029;-77
2022/10/24 01:52:10;;;;;;;7.60;2.13;;;;;;;14.61;83.49;100288.53;5011413;28;20316;-76
2022/10/24 01:54:37;;;;;;;9.17;2.17;;;;;;;14.60;83.26;100284.16;5034196;28;20041;-77
2022/10/24 01:57:04;;;;;;;10.95;2.50;;;;;;;14.60;83.61;100278.84;5035134;28;20120;-77
2022/10/24 01:59:29;;;;;;;11.50;2.40;;;;;;;14.64;83.27;100277.75;5034959;28;20026;-77
2022/10/24 02:02:05;;;;;;;9.93;2.45;;;;;;;14.65;82.18;100282.13;5049956;28;20032;-76
2022/10/24 02:04:33;;;;;;;11.20;2.33;;;;;;;14.69;82.08;100282.84;5035013;28;20041;-77
2022/10/24 02:07:07;;;;;;;7.13;2.10;;;;;;;14.68;82.22;100276.66;5057580;28;20354;-77
2022/10/24 02:09:37;;;;;;;10.95;2.55;;;;;;;14.65;81.99;100276.81;5053631;28;20091;-77
2022/10/24 02:12:05;;;;;;;7.07;2.08;;;;;;;14.65;81.82;100276.81;5038666;28;20115;-77
2022/10/24 02:14:39;;;;;;;11.40;2.55;;;;;;;14.60;82.34;100282.34;5040144;28;20086;-76
2022/10/24 02:17:05;;;;;;;8.43;2.30;;;;;;;14.63;81.36;100274.22;5033814;28;20083;-77
2022/10/24 02:19:31;;;;;;;11.70;2.33;;;;;;;14.63;81.28;100279.53;5035047;28;20033;-77
2022/10/24 02:22:06;;;;;;;10.48;2.30;;;;;;;14.62;81.55;100275.16;5019846;28;20029;-77
2022/10/24 02:24:50;;;;;;;5.80;1.75;;;;;;;14.66;80.82;100275.84;5039811;28;20037;-77
2022/10/24 02:27:20;;;;;;;5.00;2.17;;;;;;;14.68;80.61;100275.78;5034398;28;20388;-77
2022/10/24 02:30:04;;;;;;;12.23;1.90;;;;;;;14.70;80.56;100261.47;5034034;28;20091;-77
2022/10/24 02:32:39;;;;;;;10.50;2.00;;;;;;;14.69;80.39;100266.84;5049608;28;20413;-77
2022/10/24 02:35:06;;;;;;;7.10;2.05;;;;;;;14.67;79.92;100271.41;5032584;28;20099;-77
2022/10/24 02:37:35;;;;;;;7.32;1.73;;;;;;;14.61;79.89;100259.22;5033326;28;20025;-77
2022/10/24 02:40:05;;;;;;;10.57;2.10;;;;;;;14.62;79.52;100266.31;5032947;28;20036;-77
2022/10/24 02:42:32;;;;;;;6.78;2.22;;;;;;;14.68;79.31;100266.00;5034210;28;20110;-77
2022/10/24 02:44:59;;;;;;;9.07;1.88;;;;;;;14.70;78.88;100266.78;5034693;28;20037;-77
2022/10/24 02:47:27;;;;;;;8.25;1.77;;;;;;;14.72;78.21;100274.72;5034610;28;20052;-77
2022/10/24 02:49:53;;;;;;;12.15;2.03;;;;;;;14.65;78.82;100267.97;5033854;28;20030;-77
2022/10/24 02:52:18;;;;;;;13.55;1.98;;;;;;;14.68;78.29;100283.78;5019616;28;20359;-77
2022/10/24 02:54:44;;;;;;;12.02;2.50;;;;;;;14.70;77.79;100266.78;5033812;28;20037;-77
2022/10/24 02:57:09;;;;;;;14.90;2.42;;;;;;;14.72;78.14;100275.59;5016461;28;20405;-77
2022/10/24 02:59:35;;;;;;;11.35;2.10;;;;;;;14.69;78.19;100280.19;5032168;28;20050;-77
2022/10/24 03:02:00;;;;;;;8.35;1.90;;;;;;;14.65;78.41;100270.63;5033757;28;20455;-77
2022/10/24 03:04:26;;;;;;;15.55;2.50;;;;;;;14.69;78.16;100275.75;5032154;28;20048;-77
2022/10/24 03:06:52;;;;;;;11.73;2.15;;;;;;;14.72;77.38;100285.38;5038969;28;20044;-78
2022/10/24 03:09:18;;;;;;;12.10;2.03;;;;;;;14.71;77.41;100287.19;5053737;28;20385;-77
2022/10/24 03:11:43;;;;;;;19.85;2.28;;;;;;;14.73;76.94;100282.63;5034636;28;20032;-77
2022/10/24 03:14:09;;;;;;;9.13;2.00;;;;;;;14.83;76.31;100280.38;5040828;28;20040;-78
2022/10/24 03:16:34;;;;;;;8.63;1.83;;;;;;;14.83;76.65;100296.38;5049068;28;20037;-77
2022/10/24 03:19:00;;;;;;;12.95;1.88;;;;;;;14.77;76.60;100284.22;5032725;28;20057;-77
2022/10/24 03:21:25;;;;;;;6.78;1.90;;;;;;;14.80;76.38;100281.41;5033640;28;20022;-78
2022/10/24 03:23:51;;;;;;;8.15;1.90;;;;;;;14.83;75.72;100286.56;5033202;28;20030;-78
2022/10/24 03:26:16;;;;;;;6.88;1.95;;;;;;;14.81;76.11;100287.59;5038104;28;20456;-77
2022/10/24 03:28:42;;;;;;;10.52;1.92;;;;;;;14.87;75.47;100281.97;5031799;28;20029;-77
2022/10/24 03:31:08;;;;;;;7.00;1.55;;;;;;;14.95;75.00;100273.59;5031610;28;20515;-78
2022/10/24 03:33:33;;;;;;;6.47;2.30;;;;;;;14.91;74.92;100272.91;5033040;28;20441;-77
2022/10/24 03:35:58;;;;;;;8.65;2.03;;;;;;;14.97;75.05;100274.41;5031398;28;20041;-77
2022/10/24 03:38:25;;;;;;;8.73;2.42;;;;;;;15.03;74.52;100274.97;5031567;28;20042;-78
2022/10/24 03:40:50;;;;;;;12.05;2.08;;;;;;;14.98;75.49;100279.63;5048231;28;20025;-77
2022/10/24 03:43:17;;;;;;;7.82;1.77;;;;;;;14.98;75.46;100271.63;5048179;28;20092;-78
2022/10/24 03:45:43;;;;;;;6.45;2.17;;;;;;;14.99;75.62;100257.38;5032595;28;20032;-78
2022/10/24 03:48:10;;;;;;;5.28;1.77;;;;;;;14.97;75.80;100266.41;5031227;28;20049;-78
2022/10/24 03:50:35;;;;;;;6.18;1.75;;;;;;;14.95;75.48;100254.94;5015050;28;20083;-77
2022/10/24 03:53:01;;;;;;;9.43;2.05;;;;;;;14.93;75.70;100256.81;5019345;28;20033;-78
2022/10/24 03:55:28;;;;;;;10.13;1.90;;;;;;;14.89;76.48;100255.25;5031427;28;20373;-78
2022/10/24 03:57:53;;;;;;;7.53;1.63;;;;;;;14.86;76.24;100255.38;5032987;28;20124;-78
2022/10/24 04:00:19;;;;;;;8.40;2.22;;;;;;;14.84;76.25;100244.81;5032624;28;20183;-78
2022/10/24 04:02:45;;;;;;;5.85;2.10;;;;;;;14.80;76.58;100254.75;5031028;28;20186;-77
2022/10/24 04:05:12;;;;;;;6.03;1.80;;;;;;;14.75;76.84;100256.78;5030885;28;20465;-77
2022/10/24 04:07:37;;;;;;;4.53;1.95;;;;;;;14.71;77.14;100264.97;5044905;28;20044;-77
2022/10/24 04:10:04;;;;;;;6.68;1.80;;;;;;;14.66;77.37;100249.22;5030974;28;20045;-77
2022/10/24 04:12:30;;;;;;;6.22;2.20;;;;;;;14.70;76.63;100264.13;5039205;28;20041;-78
2022/10/24 04:14:55;;;;;;;8.02;2.22;;;;;;;14.71;77.06;100260.53;5049265;28;20021;-78
2022/10/24 04:17:21;;;;;;;5.13;1.90;;;;;;;14.73;76.97;100249.78;5032961;28;20037;-77
2022/10/24 04:19:46;;;;;;;9.45;2.13;;;;;;;14.74;76.79;100256.88;5030910;28;20152;-78
2022/10/24 04:22:12;;;;;;;7.18;1.60;;;;;;;14.74;76.85;100247.06;5030945;28;20124;-78
2022/10/24 04:24:38;;;;;;;9.98;2.15;;;;;;;14.75;77.10;100246.09;5021446;28;20028;-78
2022/10/24 04:27:05;;;;;;;6.00;1.48;;;;;;;14.81;76.69;100250.25;5032087;28;20036;-78
2022/10/24 04:29:30;;;;;;;9.45;2.38;;;;;;;14.80;76.82;100252.06;5032318;28;20029;-78
2022/10/24 04:31:56;;;;;;;7.63;2.15;;;;;;;14.82;76.45;100254.69;5030454;28;20052;-77
2022/10/24 04:34:21;;;;;;;10.45;1.92;;;;;;;14.81;76.60;100255.59;5032635;28;20037;-77
2022/10/24 04:36:47;;;;;;;8.50;1.90;;;;;;;14.77;76.72;100254.03;5008380;28;20026;-77
2022/10/24 04:39:12;;;;;;;6.80;2.47;;;;;;;14.83;76.11;100248.41;5030610;28;20069;-78
2022/10/24 04:41:37;;;;;;;6.63;1.80;;;;;;;14.87;75.75;100249.97;5031979;28;20089;-78
2022/10/24 04:44:03;;;;;;;11.63;2.20;;;;;;;14.97;75.08;100247.72;5014141;28;20034;-78
2022/10/24 04:46:28;;;;;;;13.05;2.25;;;;;;;14.97;75.16;100250.41;5031952;28;20045;-77
2022/10/24 04:48:54;;;;;;;10.45;1.83;;;;;;;14.96;74.79;100244.22;5030310;28;20072;-78
2022/10/24 04:51:20;;;;;;;4.38;1.35;;;;;;;15.03;74.48;100253.63;5031684;28;20037;-78
2022/10/24 04:53:45;;;;;;;9.13;1.83;;;;;;;14.97;75.34;100279.72;5031892;28;20500;-78
2022/10/24 04:56:11;;;;;;;6.35;1.77;;;;;;;15.01;74.64;100252.84;5013627;28;20440;-78
2022/10/24 04:58:36;;;;;;;5.63;1.67;;;;;;;14.99;74.76;100256.53;5031542;28;20061;-77
2022/10/24 05:01:02;;;;;;;12.15;1.88;;;;;;;14.98;74.51;100249.44;5030061;28;20024;-78
2022/10/24 05:03:27;;;;;;;3.88;1.55;;;;;;;14.94;75.05;100261.22;5031481;28;20029;-77
2022/10/24 05:05:53;;;;;;;6.55;1.83;;;;;;;14.90;75.37;100265.81;5032179;28;20029;-78
2022/10/24 05:08:18;;;;;;;11.38;2.30;;;;;;;14.96;74.83;100261.97;5042612;28;20064;-78
2022/10/24 05:10:44;;;;;;;9.20;2.67;;;;;;;14.94;75.31;100259.41;5030874;28;20072;-78
2022/10/24 05:13:09;;;;;;;6.53;1.85;;;;;;;15.01;74.72;100258.16;5039761;28;20061;-78
2022/10/24 05:15:35;;;;;;;11.73;2.05;;;;;;;14.97;75.23;100269.91;5031555;28;20556;-77
2022/10/24 05:18:00;;;;;;;7.78;1.80;;;;;;;14.97;75.40;100261.91;5031714;28;20419;-78
2022/10/24 05:20:26;;;;;;;10.25;2.15;;;;;;;14.94;75.50;100271.88;5029792;28;20083;-78
2022/10/24 05:22:51;;;;;;;5.05;2.00;;;;;;;14.96;74.70;100262.88;5031305;28;20500;-78
2022/10/24 05:25:18;;;;;;;6.60;1.50;;;;;;;14.94;75.77;100280.75;5026281;28;20037;-77
2022/10/24 05:27:43;;;;;;;4.28;1.67;;;;;;;14.92;76.05;100276.41;5030537;28;20037;-78
2022/10/24 05:30:10;;;;;;;10.60;2.08;;;;;;;14.91;75.49;100277.34;5046013;28;20044;-77
2022/10/24 05:32:36;;;;;;;6.70;1.58;;;;;;;14.91;75.69;100288.00;5046390;28;20175;-78
2022/10/24 05:35:01;;;;;;;11.00;1.92;;;;;;;14.91;76.39;100274.69;5030857;28;20127;-78
2022/10/24 05:37:27;;;;;;;6.30;1.60;;;;;;;14.91;76.17;100285.34;5029360;28;20017;-77
2022/10/24 05:39:52;;;;;;;9.80;2.10;;;;;;;14.93;76.60;100284.31;5031104;28;20030;-78
2022/10/24 05:42:18;;;;;;;6.90;1.80;;;;;;;14.95;76.55;100282.44;5029179;28;20571;-78
2022/10/24 05:44:43;;;;;;;10.07;1.88;;;;;;;14.95;76.41;100268.25;5043738;28;20021;-78
2022/10/24 05:47:09;;;;;;;9.77;2.15;;;;;;;14.95;76.84;100281.59;5025994;28;20041;-77
2022/10/24 05:49:34;;;;;;;8.77;2.08;;;;;;;14.96;76.87;100269.97;5028951;28;20037;-77
2022/10/24 05:52:00;;;;;;;12.52;2.67;;;;;;;14.97;76.56;100277.06;5030969;28;20385;-78
2022/10/24 05:54:25;;;;;;;7.97;2.20;;;;;;;14.95;76.88;100282.44;5046363;28;20041;-77
2022/10/24 05:56:51;;;;;;;8.95;2.08;;;;;;;14.92;76.82;100281.75;5030507;28;20038;-77
2022/10/24 05:59:16;;;;;;;18.60;2.40;;;;;;;14.88;77.17;100290.81;5045923;28;20076;-77
2022/10/24 06:01:43;;;;;;;12.77;2.47;;;;;;;14.95;76.31;100276.25;5030509;28;20033;-78
2022/10/24 06:04:08;;;;;;;10.23;2.40;;;;;;;15.04;75.99;100291.81;5029804;28;20053;-78
2022/10/24 06:06:38;;;;;;;11.25;2.10;;;;;;;15.01;76.07;100287.50;5036804;28;20365;-78
2022/10/24 06:09:04;;;;;;;11.48;1.92;;;;;;;15.05;75.67;100273.06;5034584;28;20037;-79
2022/10/24 06:11:29;;;;;;;15.00;2.50;;;;;;;15.06;75.82;100289.94;5030939;28;20420;-78
2022/10/24 06:13:55;;;;;;;11.18;2.47;;;;;;;15.00;76.03;100291.09;5035591;28;20033;-78
2022/10/24 06:16:20;;;;;;;10.20;2.00;;;;;;;14.98;76.24;100290.28;5030851;28;20057;-78
2022/10/24 06:18:46;;;;;;;14.07;2.55;;;;;;;14.93;76.48;100280.81;5031171;28;20038;-78
2022/10/24 06:21:12;;;;;;;8.55;2.17;;;;;;;14.92;76.40;100282.59;5029361;28;20037;-79
2022/10/24 06:23:38;;;;;;;6.03;1.85;;;;;;;14.96;76.22;100299.31;5031035;28;20545;-78
2022/10/24 06:26:07;;;;;;;14.00;2.50;;;;;;;14.97;76.36;100298.38;5031904;28;20041;-78
2022/10/24 06:28:32;;;;;;;11.48;1.98;;;;;;;14.92;76.69;100305.75;5046086;28;20171;-78
2022/10/24 06:31:02;;;;;;;7.30;1.98;;;;;;;14.93;76.59;100312.78;5029172;28;20120;-78
2022/10/24 06:33:29;;;;;;;20.05;2.40;;;;;;;14.87;76.76;100310.44;5029388;28;20057;-78
2022/10/24 06:35:58;;;;;;;13.88;2.90;;;;;;;14.83;77.07;100315.03;5045876;28;20473;-78
2022/10/24 06:38:24;;;;;;;15.75;2.03;;;;;;;14.81;77.43;100311.56;5031709;28;20049;-78
2022/10/24 06:40:49;;;;;;;9.07;2.33;;;;;;;14.77;77.61;100320.69;5034329;28;20390;-78
2022/10/24 06:43:15;;;;;;;11.23;2.00;;;;;;;14.72;77.86;100315.56;5049366;28;20514;-78
2022/10/24 06:45:40;;;;;;;14.45;2.67;;;;;;;14.70;77.94;100320.09;5034394;28;20481;-78
2022/10/24 06:48:06;;;;;;;11.40;2.17;;;;;;;14.70;78.30;100336.09;5016597;28;20040;-78
2022/10/24 06:50:31;;;;;;;9.38;2.25;;;;;;;14.71;78.22;100324.50;5034305;28;20122;-79
2022/10/24 06:52:57;;;;;;;14.57;3.00;;;;;;;14.80;77.85;100328.53;5032214;28;20029;-79
2022/10/24 06:55:22;;;;;;;15.30;2.95;;;;;;;14.72;78.48;100344.88;5032651;28;20442;-78
2022/10/24 06:57:48;;;;;;;11.85;2.70;;;;;;;14.74;78.42;100329.69;5034574;28;20047;-78
2022/10/24 07:00:13;;;;;;;11.07;2.67;;;;;;;14.74;78.42;100345.69;5034107;28;20120;-78
2022/10/24 07:02:39;;;;;;;11.63;2.90;;;;;;;14.74;78.16;100364.34;5032811;28;20038;-78
2022/10/24 07:05:08;;;;;;;11.10;2.38;;;;;;;14.80;78.63;100340.03;5026960;28;20026;-78
2022/10/24 07:07:33;;;;;;;11.00;2.78;;;;;;;14.80;78.69;100358.69;5044962;28;20464;-78
2022/10/24 07:09:59;;;;;;;10.82;2.13;;;;;;;14.87;78.21;100355.75;5048866;28;20018;-78
2022/10/24 07:12:25;;;;;;;13.73;2.47;;;;;;;14.82;78.68;100359.50;5056603;28;20124;-78
2022/10/24 07:14:50;;;;;;;11.25;2.45;;;;;;;14.86;78.62;100365.56;5034971;28;20399;-79
2022/10/24 07:17:17;;;;;;;11.63;2.80;;;;;;;14.94;79.21;100344.72;5033856;28;20045;-79
2022/10/24 07:19:43;;;;;;;12.38;3.03;;;;;;;14.88;79.84;100368.13;5033762;28;20037;-78
2022/10/24 07:22:09;;;;;;;15.48;2.33;;;;;;;14.90;80.07;100371.59;5032504;28;20033;-79
2022/10/24 07:24:35;;;;;;;15.52;2.80;;;;;;;14.86;80.63;100362.00;5041390;28;20048;-78
2022/10/24 07:27:00;;;;;;;19.13;3.13;;;;;;;14.83;81.07;100381.69;5033741;28;20032;-78
2022/10/24 07:29:26;;;;;;;11.57;2.65;;;;;;;14.85;81.22;100390.47;5049161;28;20389;-78
2022/10/24 07:31:52;;;;;;;13.10;2.22;;;;;;;14.91;81.16;100386.66;5033088;28;20042;-78
2022/10/24 07:34:17;;;;;;;10.38;2.13;;;;;;;14.98;81.06;100396.09;5033545;28;20390;-78
2022/10/24 07:36:43;;;;;;;13.00;2.53;;;;;;;15.05;80.57;100397.53;5031892;28;20029;-78
2022/10/24 07:39:10;;;;;;;10.93;2.50;;;;;;;15.07;80.64;100392.13;5008031;28;20335;-78
2022/10/24 07:41:39;;;;;;;9.18;2.22;;;;;;;15.03;80.86;100384.28;5027359;28;20067;-78
2022/10/24 07:44:05;;;;;;;11.35;3.10;;;;;;;15.10;80.05;100411.50;5019763;28;20087;-78
2022/10/24 07:46:30;;;;;;;15.40;3.25;;;;;;;15.11;80.26;100418.59;5033486;28;20029;-78
2022/10/24 07:48:56;;;;;;;15.13;2.80;;;;;;;15.07;79.61;100434.81;5033066;28;20041;-78
2022/10/24 07:51:22;;;;;;;11.25;2.42;;;;;;;15.15;78.09;100433.50;5031201;28;20052;-78
2022/10/24 07:53:48;;;;;;;11.65;2.20;;;;;;;15.17;78.11;100420.94;5033307;28;20025;-78
2022/10/24 07:56:15;;;;;;;11.15;2.25;;;;;;;15.20;78.16;100420.81;5033068;28;20523;-79
2022/10/24 07:58:42;;;;;;;14.13;2.50;;;;;;;15.16;78.77;100437.91;5032156;28;20021;-78
2022/10/24 08:01:11;;;;;;;11.20;2.42;;;;;;;15.05;79.72;100433.06;5031538;28;20032;-78
2022/10/24 08:03:37;;;;;;;8.35;1.77;;;;;;;15.03;80.17;100440.28;5048449;28;20037;-78
2022/10/24 08:06:12;;;;;;;13.05;2.17;;;;;;;15.03;80.57;100440.28;5034758;28;20414;-78
2022/10/24 08:08:37;;;;;;;13.07;2.20;;;;;;;15.11;80.09;100439.94;5057861;28;20432;-78
2022/10/24 08:11:16;;;;;;;20.23;2.75;;;;;;;15.17;80.54;100444.97;5032677;28;20021;-78
2022/10/24 08:13:42;;;;;;;9.50;2.40;;;;;;;15.24;79.58;100457.06;5043625;28;20033;-78
2022/10/24 08:16:10;;;;;;;10.70;2.35;;;;;;;15.35;78.73;100447.69;5032897;28;20049;-78
2022/10/24 08:18:36;;;;;;;14.95;2.58;;;;;;;15.36;78.85;100446.75;5031641;28;20029;-78
2022/10/24 08:21:04;;;;;;;13.80;2.80;;;;;;;15.33;78.43;100453.13;5032959;28;20516;-78
2022/10/24 08:23:31;;;;;;;9.23;2.30;;;;;;;15.31;78.66;100451.47;5031405;28;20115;-78
2022/10/24 08:25:56;;;;;;;11.52;2.33;;;;;;;15.27;79.31;100461.41;5056631;28;20087;-78
2022/10/24 08:28:22;;;;;;;7.95;2.00;;;;;;;15.27;79.19;100453.38;5032644;28;20469;-78
2022/10/24 08:31:02;;;;;;;15.35;3.20;;;;;;;15.34;78.87;100460.16;5031275;28;20124;-78
2022/10/24 08:33:28;;;;;;;6.88;2.05;;;;;;;15.37;78.47;100456.50;5032692;28;20421;-78
2022/10/24 08:35:57;;;;;;;9.20;2.10;;;;;;;15.39;78.59;100465.28;5032228;28;20040;-79
2022/10/24 08:38:23;;;;;;;10.32;1.90;;;;;;;15.45;78.01;100463.19;5032549;28;20140;-78
2022/10/24 08:40:48;;;;;;;12.55;2.35;;;;;;;15.55;76.46;100460.91;5031075;28;20120;-79
2022/10/24 08:43:16;;;;;;;8.48;2.00;;;;;;;15.56;75.54;100454.66;5031423;28;20064;-78
2022/10/24 08:46:06;;;;;;;8.73;1.65;;;;;;;15.58;75.61;100462.56;5031013;28;20385;-78
2022/10/24 08:48:41;;;;;;;11.05;2.53;;;;;;;15.60;75.87;100472.28;5032465;28;20087;-78
2022/10/24 08:52:05;;;;;;;10.68;2.33;;;;;;;15.62;75.48;100465.03;5031806;28;20063;-78
2022/10/24 08:54:38;;;;;;;13.32;2.47;;;;;;;15.67;74.05;100459.47;4970807;28;20443;-78
2022/10/24 08:57:05;;;;;;;10.13;1.90;;;;;;;15.72;74.53;100469.97;4943498;29;20055;-78
2022/10/24 08:59:34;;;;;;;14.20;2.42;;;;;;;15.77;74.09;100475.94;5000244;28;20041;-78
2022/10/24 09:02:17;;;;;;;8.23;2.28;;;;;;;15.82;73.81;100469.41;5031987;28;20117;-78
2022/10/24 09:04:50;;;;;;;8.52;1.95;;;;;;;15.85;73.37;100474.63;5031715;28;20033;-79
2022/10/24 09:07:19;;;;;;;10.20;2.50;;;;;;;15.90;73.12;100469.91;5044444;28;20056;-79
2022/10/24 09:09:48;;;;;;;10.63;2.03;;;;;;;15.91;72.93;100486.81;5046991;28;20045;-78
2022/10/24 09:12:16;;;;;;;10.10;1.48;;;;;;;15.99;72.64;100489.09;5038789;28;20346;-79
2022/10/24 09:14:44;;;;;;;8.80;2.05;;;;;;;15.99;72.06;100489.94;5050957;28;20033;-79
2022/10/24 09:17:21;;;;;;;11.30;2.13;;;;;;;16.10;72.03;100487.63;5031826;28;20061;-78
2022/10/24 09:19:56;;;;;;;9.20;1.30;;;;;;;16.16;70.36;100472.22;5031559;28;20072;-78
2022/10/24 09:22:24;;;;;;;8.30;2.00;;;;;;;16.16;71.33;100498.94;5027242;28;20394;-78
2022/10/24 09:24:57;;;;;;;9.45;1.85;;;;;;;16.25;70.04;100507.34;5035937;28;20036;-79
2022/10/24 09:27:26;;;;;;;12.85;2.22;;;;;;;16.30;69.60;100494.63;5030533;28;20243;-78
2022/10/24 09:29:52;;;;;;;9.30;1.52;;;;;;;16.29;69.26;100498.22;5031324;28;20025;-78
2022/10/24 09:32:29;;;;;;;5.95;1.95;;;;;;;16.36;69.40;100512.13;5031457;28;20049;-79
2022/10/24 09:35:02;;;;;;;9.40;1.98;;;;;;;16.40;69.40;100513.72;5046589;28;20041;-80
2022/10/24 09:37:43;;;;;;;8.90;1.77;;;;;;;16.42;69.87;100508.28;5031334;28;20426;-78
2022/10/24 09:40:14;;;;;;;10.68;1.60;;;;;;;16.48;69.64;100510.66;5031228;28;20033;-78
2022/10/24 09:42:48;;;;;;;10.32;2.67;;;;;;;16.53;68.86;100498.75;5046664;28;20135;-78
2022/10/24 09:45:29;;;;;;;8.23;1.88;;;;;;;16.55;69.58;100544.13;5029998;28;20029;-78
2022/10/24 09:48:02;;;;;;;7.40;2.20;;;;;;;16.59;68.18;100518.09;5030106;28;20034;-78
2022/10/24 09:50:31;;;;;;;12.43;2.80;;;;;;;16.59;68.56;100535.00;5031020;28;20120;-79
2022/10/24 09:52:58;;;;;;;10.48;2.20;;;;;;;16.65;69.27;100526.66;5017707;28;20041;-78
2022/10/24 09:55:27;;;;;;;8.05;2.00;;;;;;;16.73;69.17;100536.97;5031295;28;20107;-78
2022/10/24 09:58:02;;;;;;;17.65;2.42;;;;;;;16.82;67.72;100533.00;5042223;28;20062;-78
2022/10/24 10:00:34;;;;;;;11.93;2.17;;;;;;;16.85;68.18;100539.03;5022499;28;20037;-78
2022/10/24 10:03:20;;;;;;;9.52;2.30;;;;;;;16.90;67.78;100545.00;5029917;28;20056;-78
2022/10/24 10:05:52;;;;;;;8.57;1.98;;;;;;;16.93;66.04;100558.19;5030720;28;20040;-78
2022/10/24 10:08:28;;;;;;;10.25;2.70;;;;;;;16.93;66.74;100574.25;5040835;28;20065;-78
2022/10/24 10:11:12;;;;;;;11.13;2.60;;;;;;;16.97;65.47;100526.81;5031090;28;20042;-78
2022/10/24 10:13:52;;;;;;;13.23;2.58;;;;;;;16.92;66.89;100550.28;5043663;28;20116;-78
2022/10/24 10:16:20;;;;;;;8.20;2.35;;;;;;;17.01;66.69;100559.59;5034831;28;20188;-78
2022/10/24 10:18:47;;;;;;;10.23;2.15;;;;;;;17.09;66.61;100554.72;5050506;28;20060;-78
2022/10/24 10:21:19;;;;;;;7.25;2.05;;;;;;;17.26;66.66;100557.38;5032706;28;20528;-78
2022/10/24 10:23:48;;;;;;;14.00;2.25;;;;;;;17.42;66.31;100568.94;5027181;28;20064;-77
2022/10/24 10:26:13;;;;;;;12.45;2.42;;;;;;;17.41;66.65;100567.22;5041582;28;20083;-77
2022/10/24 10:28:50;;;;;;;7.63;1.88;;;;;;;17.45;65.60;100593.81;5034924;28;20029;-77
2022/10/24 10:31:20;;;;;;;16.52;2.60;;;;;;;17.52;65.29;100573.81;5034643;28;20458;-77
2022/10/24 10:34:09;;;;;;;14.33;2.57;;;;;;;17.54;65.55;100579.94;5034566;28;20489;-77
2022/10/24 10:36:47;;;;;;;10.43;2.05;;;;;;;17.51;65.69;100583.66;5049739;28;20102;-77
2022/10/24 10:39:37;;;;;;;6.80;2.00;;;;;;;17.42;64.55;100585.00;5034219;28;20456;-77
2022/10/24 10:42:15;;;;;;;10.43;2.23;;;;;;;17.28;65.65;100595.59;5034590;28;20032;-77
2022/10/24 10:44:59;;;;;;;12.10;2.53;;;;;;;17.14;66.56;100607.03;5019547;28;20784;-77
2022/10/24 10:47:55;;;;;;;19.35;2.60;;;;;;;17.10;67.47;100602.78;5022816;28;20473;-77
2022/10/24 10:50:27;;;;;;;14.05;2.83;;;;;;;17.22;67.19;100600.44;5021776;28;20426;-77
2022/10/24 10:52:56;;;;;;;9.25;2.30;;;;;;;17.37;66.85;100594.25;5019881;28;20056;-77
2022/10/24 10:55:38;;;;;;;10.75;2.30;;;;;;;17.63;67.32;100601.72;5025427;28;20044;-76
2022/10/24 10:58:31;;;;;;;10.68;2.42;;;;;;;17.75;65.52;100597.47;5033925;28;20121;-77
2022/10/24 11:01:30;;;;;;;11.45;2.28;;;;;;;17.71;64.36;100614.69;5032732;28;20041;-77
2022/10/24 11:04:20;;;;;;;12.05;2.20;;;;;;;17.56;64.08;100607.50;5034030;28;20045;-77
2022/10/24 11:07:00;;;;;;;9.20;2.10;;;;;;;17.51;64.47;100625.63;5029540;28;20029;-77
2022/10/24 11:09:29;;;;;;;11.70;2.60;;;;;;;17.26;65.05;100624.28;5043370;28;20141;-76
2022/10/24 11:12:29;;;;;;;13.20;2.08;;;;;;;17.47;65.53;100616.88;5036209;28;20033;-77
2022/10/24 11:15:12;;;;;;;11.57;2.33;;;;;;;17.64;64.99;100624.00;5035706;28;20040;-77
2022/10/24 11:17:49;;;;;;;12.98;2.72;;;;;;;17.75;65.27;100623.41;5033902;28;20114;-77
2022/10/24 11:20:42;;;;;;;8.32;1.90;;;;;;;17.94;64.55;100601.84;5033741;28;20124;-77
2022/10/24 11:23:19;;;;;;;11.30;2.22;;;;;;;17.94;64.63;100604.53;5009478;28;20355;-77
2022/10/24 11:25:54;;;;;;;13.60;2.80;;;;;;;17.96;64.81;100610.69;5038154;28;20033;-77
2022/10/24 11:28:38;;;;;;;17.17;3.03;;;;;;;17.92;64.52;100618.00;5025893;28;20112;-76
2022/10/24 11:31:10;;;;;;;5.78;1.63;;;;;;;18.00;64.97;100615.78;5022824;28;20502;-76
2022/10/24 11:33:48;;;;;;;11.35;2.75;;;;;;;18.02;65.77;100613.84;5020907;28;20030;-77
2022/10/24 11:36:48;;;;;;;9.02;1.90;;;;;;;18.05;64.76;100623.53;5026409;28;20045;-77